createdAt,value
2023-04-27T00:04:16.719Z,4.78
2023-04-27T00:09:19.640Z,5.80
2023-04-27T00:14:22.279Z,5.45
2023-04-27T00:19:25.863Z,5.97
2023-04-27T00:24:28.618Z,6.55
2023-04-27T00:29:33.877Z,7.03
2023-04-27T00:34:37.306Z,8.13
2023-04-27T00:39:40.332Z,8.52
2023-04-27T00:44:43.232Z,8.23
2023-04-27T00:49:45.984Z,8.65
2023-04-27T00:54:52.569Z,8.73
2023-04-27T00:59:57.034Z,9.32
2023-04-27T01:05:00.538Z,7.95
2023-04-27T01:10:04.979Z,8.70
2023-04-27T01:15:08.382Z,7.35
2023-04-27T01:20:11.908Z,8.50
2023-04-27T01:25:15.176Z,7.88
2023-04-27T01:30:17.900Z,8.55
2023-04-27T01:35:20.700Z,9.10
2023-04-27T01:40:23.444Z,9.52
2023-04-27T01:45:26.102Z,9.57
2023-04-27T01:50:28.733Z,10.05
2023-04-27T01:55:31.398Z,9.85
2023-04-27T02:00:34.343Z,8.95
2023-04-27T02:05:37.970Z,8.90
2023-04-27T02:10:40.827Z,8.05
2023-04-27T02:15:43.782Z,9.38
2023-04-27T02:20:46.528Z,8.48
2023-04-27T02:25:49.147Z,11.07
2023-04-27T02:30:51.937Z,8.07
2023-04-27T02:35:54.557Z,10.10
2023-04-27T02:40:57.318Z,10.10
2023-04-27T02:46:06.320Z,10.20
2023-04-27T02:51:08.997Z,9.88
2023-04-27T02:56:11.690Z,9.93
2023-04-27T03:01:17.518Z,10.27
2023-04-27T03:06:20.409Z,11.88
2023-04-27T03:11:23.112Z,12.88
2023-04-27T03:16:26.008Z,10.02
2023-04-27T03:21:28.872Z,10.15
2023-04-27T03:26:31.799Z,11.13
2023-04-27T03:31:34.668Z,11.00
2023-04-27T03:36:37.835Z,10.40
2023-04-27T03:41:41.220Z,10.90
2023-04-27T03:46:44.151Z,11.73
2023-04-27T03:51:47.949Z,12.57
2023-04-27T03:56:51.041Z,15.20
2023-04-27T04:01:54.775Z,14.10
2023-04-27T04:06:57.656Z,14.15
2023-04-27T04:12:02.189Z,14.52
2023-04-27T04:17:05.375Z,13.57
2023-04-27T04:22:08.419Z,13.07
2023-04-27T04:27:11.761Z,13.23
2023-04-27T04:32:17.966Z,12.10
2023-04-27T04:37:20.907Z,11.23
2023-04-27T04:42:23.956Z,11.60
2023-04-27T04:47:28.152Z,10.75
2023-04-27T04:52:31.073Z,10.55
2023-04-27T04:57:33.799Z,9.15
2023-04-27T05:02:37.050Z,7.30
2023-04-27T05:07:41.497Z,7.38
2023-04-27T05:12:45.018Z,7.60
2023-04-27T05:17:48.009Z,6.55
2023-04-27T05:22:50.815Z,6.18
2023-04-27T05:27:54.008Z,6.00
2023-04-27T05:32:57.353Z,5.35
2023-04-27T05:38:00.743Z,6.07
2023-04-27T05:43:05.799Z,7.03
2023-04-27T05:48:09.304Z,5.75
2023-04-27T05:53:12.426Z,5.70
2023-04-27T05:58:18.803Z,6.43
2023-04-27T07:07:58.295Z,3.70
2023-04-27T07:13:02.696Z,4.22
2023-04-27T07:18:05.957Z,4.00
2023-04-27T07:23:08.906Z,3.83
2023-04-27T07:28:12.068Z,4.15
2023-04-27T07:33:14.828Z,4.53
2023-04-27T07:38:20.987Z,4.18
2023-04-27T07:43:25.737Z,4.07
2023-04-27T07:48:31.473Z,4.53
2023-04-27T07:53:36.116Z,4.60
2023-04-27T07:58:38.896Z,4.50
2023-04-27T08:03:42.047Z,4.25
2023-04-27T08:08:44.994Z,5.15
2023-04-27T08:13:47.763Z,4.75
2023-04-27T08:18:51.018Z,5.63
2023-04-27T08:23:53.704Z,5.45
2023-04-27T08:28:57.603Z,4.47
2023-04-27T08:34:00.269Z,4.45
2023-04-27T08:39:05.756Z,4.15
2023-04-27T08:44:08.748Z,6.97
2023-04-27T08:49:13.163Z,5.20
2023-04-27T08:54:17.381Z,5.32
2023-04-27T08:59:20.610Z,5.47
2023-04-27T09:04:43.892Z,4.63
2023-04-27T09:09:53.639Z,4.85
2023-04-27T09:15:06.154Z,5.05
2023-04-27T09:20:13.069Z,4.57
2023-04-27T09:25:30.394Z,3.50
2023-04-27T09:30:37.225Z,3.65
2023-04-27T09:35:47.009Z,3.83
2023-04-27T09:40:51.649Z,3.25
2023-04-27T09:45:55.821Z,4.30
2023-04-27T09:50:58.764Z,4.10
2023-04-27T09:56:29.220Z,4.18
2023-04-27T10:02:17.058Z,4.17
2023-04-27T10:07:30.126Z,4.25
2023-04-27T10:12:37.198Z,2.72
2023-04-27T10:17:53.518Z,8.57
2023-04-27T10:22:56.320Z,4.38
2023-04-27T10:28:02.236Z,4.20
2023-04-27T10:33:08.821Z,3.60
2023-04-27T10:38:28.860Z,4.10
2023-04-27T10:43:37.853Z,5.55
2023-04-27T10:48:47.625Z,3.70
2023-04-27T10:53:53.734Z,3.83
2023-04-27T10:59:03.767Z,4.63
2023-04-27T11:04:06.722Z,4.40
2023-04-27T11:14:27.590Z,5.68
2023-04-27T11:19:31.063Z,4.70
2023-04-27T11:24:35.117Z,4.47
2023-04-27T11:29:39.241Z,4.20
2023-04-27T11:34:53.843Z,3.78
2023-04-27T11:40:05.914Z,3.30
2023-04-27T11:45:20.556Z,4.13
2023-04-27T11:50:29.093Z,3.97
2023-04-27T11:55:37.693Z,3.13
2023-04-27T12:00:49.970Z,3.90
2023-04-27T12:05:56.800Z,3.80
2023-04-27T12:11:08.017Z,3.80
2023-04-27T12:16:28.557Z,3.80
2023-04-27T12:21:32.503Z,3.67
2023-04-27T12:26:35.643Z,3.38
2023-04-27T12:31:38.673Z,3.38
2023-04-27T12:36:41.509Z,2.45
2023-04-27T12:52:36.584Z,2.83
2023-04-27T12:57:39.196Z,2.90
2023-04-27T13:02:43.533Z,3.25
2023-04-27T13:07:46.330Z,2.88
2023-04-27T13:12:49.314Z,3.28
2023-04-27T13:17:53.313Z,3.13
2023-04-27T13:22:56.511Z,2.90
2023-04-27T13:27:59.307Z,2.97
2023-04-27T13:33:18.483Z,3.08
2023-04-27T13:38:28.179Z,3.05
2023-04-27T13:43:36.638Z,3.15
2023-04-27T13:48:47.096Z,2.83
2023-04-27T13:53:49.883Z,2.50
2023-04-27T13:58:52.739Z,2.60
2023-04-27T14:03:55.845Z,2.65
2023-04-27T14:09:04.439Z,2.60
2023-04-27T14:14:20.752Z,2.63
2023-04-27T14:19:38.702Z,11.98
2023-04-27T14:24:44.256Z,3.42
2023-04-27T14:29:50.388Z,3.13
2023-04-27T14:34:53.129Z,3.40
2023-04-27T14:39:57.468Z,3.17
2023-04-27T14:45:36.727Z,3.17
2023-04-27T14:50:45.729Z,2.95
2023-04-27T14:55:48.947Z,2.80
2023-04-27T15:00:52.431Z,3.17
2023-04-27T15:05:55.525Z,2.75
2023-04-27T15:11:01.408Z,2.55
2023-04-27T15:16:09.970Z,2.65
2023-04-27T15:21:15.806Z,3.17
2023-04-27T15:26:18.800Z,3.13
2023-04-27T15:31:22.278Z,2.70
2023-04-27T15:36:42.512Z,3.03
2023-04-27T15:41:51.675Z,2.88
2023-04-27T15:46:59.554Z,3.20
2023-04-27T15:52:02.422Z,3.15
2023-04-27T15:57:05.219Z,3.47
2023-04-27T16:02:08.343Z,2.83
2023-04-27T16:07:24.280Z,3.40
2023-04-27T16:12:30.457Z,3.25
2023-04-27T16:17:39.898Z,3.90
2023-04-27T16:22:42.605Z,3.50
2023-04-27T16:27:50.367Z,5.30
2023-04-27T16:33:02.684Z,5.10
2023-04-27T16:38:06.148Z,3.63
2023-04-27T16:43:09.109Z,3.83
2023-04-27T16:48:13.352Z,3.08
2023-04-27T16:53:21.352Z,3.63
2023-04-27T16:58:59.371Z,4.10
2023-04-27T17:04:02.618Z,5.45
2023-04-27T17:09:17.817Z,4.78
2023-04-27T17:19:40.763Z,6.38
2023-04-27T17:24:43.538Z,6.88
2023-04-27T17:29:47.173Z,7.03
2023-04-27T17:34:51.423Z,7.32
2023-04-27T17:39:54.619Z,7.15
2023-04-27T17:44:57.459Z,6.72
2023-04-27T17:50:00.158Z,7.70
2023-04-27T17:55:03.044Z,6.93
2023-04-27T18:00:07.428Z,7.57
2023-04-27T18:05:12.810Z,7.60
2023-04-27T18:10:15.669Z,7.30
2023-04-27T18:15:18.413Z,7.75
2023-04-27T18:20:23.251Z,8.25
2023-04-27T18:25:26.299Z,7.88
2023-04-27T18:30:30.596Z,8.02
2023-04-27T18:35:33.449Z,8.15
2023-04-27T18:40:37.105Z,8.10
2023-04-27T18:45:39.922Z,7.97
2023-04-27T18:50:42.788Z,9.23
2023-04-27T18:55:45.530Z,7.45
2023-04-27T19:00:48.266Z,8.18
2023-04-27T19:05:53.392Z,8.45
2023-04-27T19:10:56.309Z,9.50
2023-04-27T19:15:59.388Z,12.43
2023-04-27T19:21:03.530Z,9.82
2023-04-27T19:26:13.255Z,9.25
2023-04-27T19:31:17.741Z,10.15
2023-04-27T19:36:20.551Z,17.58
2023-04-27T19:41:23.959Z,13.10
2023-04-27T19:46:27.096Z,10.05
2023-04-27T19:51:30.538Z,10.57
2023-04-27T19:56:33.474Z,10.73
2023-04-27T20:01:36.509Z,10.00
2023-04-27T20:06:40.935Z,10.15
2023-04-27T20:11:43.595Z,8.63
2023-04-27T20:16:46.700Z,8.38
2023-04-27T20:21:50.184Z,8.82
2023-04-27T20:26:52.765Z,8.68
2023-04-27T20:31:55.415Z,8.65
2023-04-27T20:36:58.220Z,8.52
2023-04-27T20:42:04.411Z,8.65
2023-04-27T20:47:13.395Z,36.33
2023-04-27T20:52:16.431Z,10.95
2023-04-27T20:57:28.631Z,9.57
2023-04-27T21:02:39.517Z,8.73
2023-04-27T21:07:42.551Z,8.18
2023-04-27T21:12:45.248Z,8.63
2023-04-27T21:17:48.065Z,9.27
2023-04-27T21:22:53.922Z,9.18
2023-04-27T21:27:56.895Z,7.95
2023-04-27T21:33:11.520Z,6.80
2023-04-27T21:38:14.106Z,7.78
2023-04-27T21:43:16.869Z,7.50
2023-04-27T21:48:19.872Z,7.03
2023-04-27T21:53:23.224Z,7.72
2023-04-27T21:58:26.215Z,7.30
2023-04-27T22:03:31.452Z,7.32
2023-04-27T22:08:37.101Z,7.28
2023-04-27T22:13:39.781Z,7.90
2023-04-27T22:18:45.295Z,7.90
2023-04-27T22:23:48.599Z,8.18
2023-04-27T22:28:56.893Z,8.80
2023-04-27T22:33:59.616Z,9.88
2023-04-27T22:39:02.566Z,10.30
2023-04-27T22:44:12.637Z,10.23
2023-04-27T22:49:24.668Z,9.63
2023-04-27T22:54:34.883Z,9.18
2023-04-27T22:59:37.444Z,10.27
2023-04-27T23:04:43.960Z,9.23
2023-04-27T23:09:48.371Z,9.75
2023-04-27T23:14:54.156Z,9.25
2023-04-27T23:19:58.130Z,9.73
2023-04-27T23:25:03.647Z,10.60
2023-04-27T23:30:13.701Z,10.55
2023-04-27T23:35:23.690Z,9.82
2023-04-27T23:40:30.413Z,10.85
2023-04-27T23:45:35.879Z,10.35
2023-04-27T23:50:41.552Z,11.60
2023-04-27T23:55:49.617Z,11.63
